createdAt,value
2017-07-08T00:00:59.362Z,99.99
2017-07-08T00:01:59.068Z,99.99
2017-07-08T00:02:59.397Z,99.99
2017-07-08T00:03:59.438Z,99.99
2017-07-08T00:04:59.456Z,99.99
2017-07-08T00:05:59.483Z,99.99
2017-07-08T00:06:59.184Z,99.99
2017-07-08T00:08:59.235Z,99.99
2017-07-08T00:09:59.577Z,99.99
2017-07-08T00:10:59.604Z,99.99
2017-07-08T00:12:14.231Z,99.99
2017-07-08T00:12:59.658Z,99.99
2017-07-08T00:13:59.679Z,99.99
2017-07-08T00:15:59.733Z,99.99
2017-07-08T00:16:59.767Z,99.99
2017-07-08T00:17:59.776Z,99.99
2017-07-08T00:18:59.807Z,99.99
2017-07-08T00:19:59.833Z,99.99
2017-07-08T00:20:59.865Z,99.99
2017-07-08T00:21:59.561Z,99.99
2017-07-08T00:22:59.596Z,99.99
2017-07-08T00:23:59.923Z,99.99
2017-07-08T00:24:59.964Z,99.99
2017-07-08T00:25:59.983Z,99.99
2017-07-08T00:27:00.011Z,99.99
2017-07-08T00:28:14.632Z,99.99
2017-07-08T00:29:00.060Z,99.99
2017-07-08T00:30:00.078Z,99.99
2017-07-08T00:32:00.134Z,99.99
2017-07-08T00:34:00.185Z,99.99
2017-07-08T00:35:00.207Z,99.99
2017-07-08T00:36:00.242Z,99.99
2017-07-08T00:37:00.261Z,99.99
2017-07-08T00:38:00.290Z,99.99
2017-07-08T00:39:00.304Z,99.99
2017-07-08T00:40:00.348Z,99.99
2017-07-08T00:41:00.365Z,99.99
2017-07-08T00:42:00.394Z,99.99
2017-07-08T00:43:00.410Z,99.99
2017-07-08T00:44:15.034Z,99.99
2017-07-08T00:46:00.168Z,99.99
2017-07-08T00:47:00.519Z,99.99
2017-07-08T00:48:00.533Z,99.99
2017-07-08T00:49:00.569Z,99.99
2017-07-08T00:50:00.585Z,99.99
2017-07-08T00:51:00.609Z,99.99
2017-07-08T00:52:00.321Z,99.99
2017-07-08T00:54:00.685Z,99.99
2017-07-08T00:55:00.711Z,99.99
2017-07-08T00:56:00.740Z,99.99
2017-07-08T00:57:00.771Z,99.99
2017-07-08T00:58:00.796Z,99.99
2017-07-08T00:59:00.493Z,99.99
2017-07-08T01:00:15.435Z,99.99
2017-07-08T01:01:00.861Z,99.99
2017-07-08T01:02:00.887Z,99.99
2017-07-08T01:03:00.909Z,99.99
2017-07-08T01:04:00.938Z,99.99
2017-07-08T01:05:00.959Z,99.99
2017-07-08T01:06:00.988Z,99.99
2017-07-08T01:07:01.009Z,99.99
2017-07-08T01:08:01.038Z,99.99
2017-07-08T01:09:01.068Z,99.99
2017-07-08T01:11:01.110Z,99.99
2017-07-08T01:12:01.139Z,99.99
2017-07-08T01:13:00.846Z,99.99
2017-07-08T01:14:00.871Z,99.99
2017-07-08T01:15:15.810Z,99.99
2017-07-08T01:16:01.241Z,99.99
2017-07-08T01:17:01.257Z,99.99
2017-07-08T01:18:01.288Z,99.99
2017-07-08T01:19:01.311Z,99.99
2017-07-08T01:20:01.340Z,99.99
2017-07-08T01:21:01.358Z,99.99
2017-07-08T01:22:01.076Z,99.99
2017-07-08T01:23:01.086Z,99.99
2017-07-08T01:24:01.120Z,99.99
2017-07-08T01:25:01.457Z,99.99
2017-07-08T01:26:01.487Z,99.99
2017-07-08T01:27:01.502Z,99.99
2017-07-08T01:28:01.539Z,99.99
2017-07-08T01:29:01.253Z,99.99
2017-07-08T01:31:01.625Z,99.99
2017-07-08T01:32:01.636Z,99.99
2017-07-08T01:33:01.664Z,99.99
2017-07-08T01:34:01.686Z,99.99
2017-07-08T01:35:01.710Z,99.99
2017-07-08T01:36:01.734Z,99.99
2017-07-08T01:37:01.763Z,99.99
2017-07-08T01:38:01.789Z,99.99
2017-07-08T01:39:01.800Z,99.99
2017-07-08T01:40:01.520Z,99.99
2017-07-08T01:41:01.870Z,99.99
2017-07-08T01:42:01.944Z,99.99
2017-07-08T01:44:01.626Z,99.99
2017-07-08T01:45:02.015Z,99.99
2017-07-08T01:46:01.987Z,99.99
2017-07-08T01:47:16.612Z,99.99
2017-07-08T01:48:02.038Z,99.99
2017-07-08T01:49:02.054Z,99.99
2017-07-08T01:50:02.088Z,99.99
2017-07-08T01:51:02.120Z,99.99
2017-07-08T01:52:02.144Z,99.99
2017-07-08T01:53:02.164Z,99.99
2017-07-08T01:54:02.193Z,99.99
2017-07-08T01:55:02.207Z,99.99
2017-07-08T01:56:02.236Z,99.99
2017-07-08T01:57:02.258Z,99.99
2017-07-08T01:58:02.297Z,99.99
2017-07-08T01:59:01.997Z,99.99
2017-07-08T02:00:02.327Z,99.99
2017-07-08T02:01:02.363Z,99.99
2017-07-08T02:02:02.386Z,99.99
2017-07-08T02:03:17.009Z,99.99
2017-07-08T02:04:02.442Z,99.99
2017-07-08T02:05:02.520Z,99.99
2017-07-08T02:06:02.492Z,99.99
2017-07-08T02:07:02.190Z,99.99
2017-07-08T02:10:02.263Z,99.99
2017-07-08T02:11:02.619Z,99.99
2017-07-08T02:12:02.321Z,99.99
2017-07-08T02:13:02.349Z,99.99
2017-07-08T02:16:02.420Z,99.99
2017-07-08T02:17:02.764Z,99.99
2017-07-08T02:18:02.787Z,99.99
2017-07-08T02:19:17.412Z,99.99
2017-07-08T02:20:02.838Z,99.99
2017-07-08T02:21:02.549Z,99.99
2017-07-08T02:22:02.879Z,99.99
2017-07-08T02:23:02.594Z,99.99
2017-07-08T02:24:02.930Z,99.99
2017-07-08T02:25:02.966Z,99.99
2017-07-08T02:26:02.675Z,99.99
2017-07-08T02:27:03.018Z,99.99
2017-07-08T02:29:03.065Z,99.99
2017-07-08T02:30:03.095Z,99.99
2017-07-08T02:31:03.103Z,99.99
2017-07-08T02:32:03.144Z,99.99
2017-07-08T02:33:03.163Z,99.99
2017-07-08T02:34:03.189Z,99.99
2017-07-08T02:35:17.814Z,99.99
2017-07-08T02:36:03.239Z,99.99
2017-07-08T02:37:03.266Z,99.99
2017-07-08T02:38:02.966Z,99.99
2017-07-08T02:39:03.317Z,99.99
2017-07-08T02:40:03.025Z,99.99
2017-07-08T02:41:03.356Z,99.99
2017-07-08T02:42:03.386Z,99.99
2017-07-08T02:43:03.415Z,99.99
2017-07-08T02:45:03.151Z,99.99
2017-07-08T02:46:03.481Z,99.99
2017-07-08T02:47:03.523Z,99.99
2017-07-08T02:48:03.528Z,99.99
2017-07-08T02:50:18.191Z,99.99
2017-07-08T02:51:03.608Z,99.99
2017-07-08T02:52:03.648Z,99.99
2017-07-08T02:53:03.656Z,99.99
2017-07-08T02:54:03.701Z,99.99
2017-07-08T02:55:03.399Z,99.99
2017-07-08T02:56:03.427Z,99.99
2017-07-08T02:57:03.755Z,99.99
2017-07-08T02:58:03.794Z,99.99
2017-07-08T02:59:03.801Z,99.99
2017-07-08T03:00:03.834Z,99.99
2017-07-08T03:01:03.546Z,99.99
2017-07-08T03:02:03.572Z,99.99
2017-07-08T03:03:03.924Z,99.99
2017-07-08T03:04:03.932Z,99.99
2017-07-08T03:05:03.959Z,99.99
2017-07-08T03:06:03.985Z,99.99
2017-07-08T03:07:04.015Z,99.99
2017-07-08T03:08:03.724Z,99.99
2017-07-08T03:09:03.750Z,99.99
2017-07-08T03:10:03.774Z,99.99
2017-07-08T03:11:04.110Z,99.99
2017-07-08T03:12:04.140Z,99.99
2017-07-08T03:13:03.851Z,99.99
2017-07-08T03:14:04.183Z,99.99
2017-07-08T03:15:04.212Z,99.99
2017-07-08T03:16:03.923Z,99.99
2017-07-08T03:17:03.953Z,99.99
2017-07-08T03:18:04.281Z,99.99
2017-07-08T03:19:04.314Z,99.99
2017-07-08T03:20:04.018Z,99.99
2017-07-08T03:21:04.367Z,99.99
2017-07-08T03:22:18.988Z,99.99
2017-07-08T03:23:04.097Z,99.99
2017-07-08T03:24:04.449Z,99.99
2017-07-08T03:25:04.471Z,99.99
2017-07-08T03:26:04.487Z,99.99
2017-07-08T03:27:04.507Z,99.99
2017-07-08T03:28:04.227Z,99.99
2017-07-08T03:29:04.247Z,99.99
2017-07-08T03:30:04.590Z,99.99
2017-07-08T03:32:04.323Z,99.99
2017-07-08T03:33:04.353Z,99.99
2017-07-08T03:34:04.679Z,99.99
2017-07-08T03:35:04.394Z,99.99
2017-07-08T03:36:04.737Z,99.99
2017-07-08T03:37:04.442Z,99.99
2017-07-08T03:38:19.390Z,99.99
2017-07-08T03:40:04.824Z,99.99
2017-07-08T03:41:04.864Z,99.99
2017-07-08T03:42:04.882Z,99.99
2017-07-08T03:43:04.914Z,99.99
2017-07-08T03:44:04.933Z,99.99
2017-07-08T03:45:04.962Z,99.99
2017-07-08T03:46:04.980Z,99.99
2017-07-08T03:47:05.013Z,99.99
2017-07-08T03:48:05.026Z,99.99
2017-07-08T03:50:05.088Z,99.99
2017-07-08T03:51:04.800Z,99.99
2017-07-08T03:52:04.822Z,99.99
2017-07-08T03:53:05.167Z,99.99
2017-07-08T03:54:19.783Z,99.99
2017-07-08T03:55:05.219Z,99.99
2017-07-08T03:56:04.913Z,99.99
2017-07-08T03:57:05.261Z,99.99
2017-07-08T03:58:05.286Z,99.99
2017-07-08T03:59:05.314Z,99.99
2017-07-08T04:00:05.337Z,99.99
2017-07-08T04:01:05.047Z,99.99
2017-07-08T04:02:05.383Z,99.99
2017-07-08T04:04:05.435Z,99.99
2017-07-08T04:05:05.470Z,99.99
2017-07-08T04:06:05.486Z,99.99
2017-07-08T04:07:05.502Z,99.99
2017-07-08T04:08:05.217Z,99.99
2017-07-08T04:09:05.249Z,99.99
2017-07-08T04:10:20.188Z,99.99
2017-07-08T04:11:05.607Z,99.99
2017-07-08T04:12:05.643Z,99.99
2017-07-08T04:13:05.662Z,99.99
2017-07-08T04:14:05.373Z,99.99
2017-07-08T04:15:05.705Z,99.99
2017-07-08T04:16:05.741Z,99.99
2017-07-08T04:17:05.444Z,99.99
2017-07-08T04:18:05.491Z,99.99
2017-07-08T04:19:05.494Z,99.99
2017-07-08T04:20:05.889Z,99.99
2017-07-08T04:21:05.545Z,99.99
2017-07-08T04:22:05.570Z,99.99
2017-07-08T04:23:05.593Z,99.99
2017-07-08T04:24:05.622Z,99.99
2017-07-08T04:25:20.566Z,99.99
2017-07-08T04:26:05.668Z,99.99
2017-07-08T04:27:06.020Z,99.99
2017-07-08T04:28:06.026Z,99.99
2017-07-08T04:29:06.075Z,99.99
2017-07-08T04:30:06.076Z,99.99
2017-07-08T04:32:06.134Z,99.99
2017-07-08T04:33:06.163Z,99.99
2017-07-08T04:34:05.867Z,99.99
2017-07-08T04:35:06.214Z,99.99
2017-07-08T04:37:05.947Z,99.99
2017-07-08T04:38:06.291Z,99.99
2017-07-08T04:39:05.999Z,99.99
2017-07-08T04:40:06.023Z,99.99
2017-07-08T04:42:06.074Z,99.99
2017-07-08T04:43:06.408Z,99.99
2017-07-08T04:44:06.445Z,99.99
2017-07-08T04:45:06.142Z,99.99
2017-07-08T04:46:06.495Z,99.99
2017-07-08T04:47:06.519Z,99.99
2017-07-08T04:48:06.550Z,99.99
2017-07-08T04:49:06.563Z,99.99
2017-07-08T04:51:06.626Z,99.99
2017-07-08T04:52:06.638Z,99.99
2017-07-08T04:53:06.677Z,99.99
2017-07-08T04:54:06.686Z,99.99
2017-07-08T04:55:06.726Z,99.99
2017-07-08T04:56:06.749Z,99.99
2017-07-08T04:57:21.423Z,99.99
2017-07-08T04:58:06.807Z,99.99
2017-07-08T04:59:06.506Z,99.99
2017-07-08T05:00:06.853Z,99.99
2017-07-08T05:01:06.884Z,99.99
2017-07-08T05:02:06.589Z,99.99
2017-07-08T05:04:06.647Z,99.99
2017-07-08T05:05:06.673Z,99.99
2017-07-08T05:06:06.693Z,99.99
2017-07-08T05:07:06.714Z,99.99
2017-07-08T05:08:06.755Z,99.99
2017-07-08T05:09:07.101Z,99.99
2017-07-08T05:10:06.808Z,99.99
2017-07-08T05:11:07.138Z,99.99
2017-07-08T05:12:06.861Z,99.99
2017-07-08T05:13:21.801Z,99.99
2017-07-08T05:14:06.909Z,99.99
2017-07-08T05:15:07.258Z,99.99
2017-07-08T05:16:07.287Z,99.99
2017-07-08T05:17:07.308Z,99.99
2017-07-08T05:18:07.331Z,99.99
2017-07-08T05:19:07.360Z,99.99
2017-07-08T05:20:07.381Z,99.99
2017-07-08T05:21:07.098Z,99.99
2017-07-08T05:22:07.439Z,99.99
2017-07-08T05:23:07.153Z,99.99
2017-07-08T05:24:07.485Z,99.88
2017-07-08T05:25:07.523Z,99.88
2017-07-08T05:26:07.236Z,99.4
2017-07-08T05:27:07.573Z,99.6
2017-07-08T05:28:07.591Z,99.88
2017-07-08T05:29:22.227Z,99.69
2017-07-08T05:32:07.717Z,98.2
2017-07-08T05:33:07.730Z,99.99
2017-07-08T05:35:07.789Z,99.69
2017-07-08T05:36:07.821Z,99.99
2017-07-08T05:37:07.834Z,99.99
2017-07-08T05:38:07.864Z,99.21
2017-07-08T05:39:07.906Z,99.99
2017-07-08T05:40:07.923Z,99.99
2017-07-08T05:41:07.957Z,99.99
2017-07-08T05:42:07.975Z,99.99
2017-07-08T05:43:08.010Z,99.31
2017-07-08T05:44:08.029Z,98.68
2017-07-08T05:45:22.656Z,96.51
2017-07-08T05:46:07.773Z,96.94
2017-07-08T05:47:08.115Z,94.33
2017-07-08T05:48:08.148Z,90.99
2017-07-08T05:49:08.167Z,91.24
2017-07-08T05:50:08.202Z,90.94
2017-07-08T05:51:08.223Z,90.94
2017-07-08T05:52:08.257Z,91.24
2017-07-08T05:53:07.968Z,90.89
2017-07-08T05:54:07.984Z,89.58
2017-07-08T05:55:08.337Z,87.74
2017-07-08T05:56:08.370Z,86.72
2017-07-08T05:58:08.424Z,86.82
2017-07-08T05:59:08.447Z,87.89
2017-07-08T06:00:23.075Z,88.81
2017-07-08T06:01:08.514Z,89.64
2017-07-08T06:02:08.526Z,89.74
2017-07-08T06:03:08.568Z,90.85
2017-07-08T06:04:08.584Z,91.91
2017-07-08T06:05:08.623Z,91
2017-07-08T06:06:08.642Z,91.87
2017-07-08T06:07:08.682Z,92.93
2017-07-08T06:08:08.383Z,93.41
2017-07-08T06:09:08.411Z,95.01
2017-07-08T06:10:08.440Z,95.64
2017-07-08T06:11:08.466Z,94.77
2017-07-08T06:12:08.501Z,95.01
2017-07-08T06:13:08.848Z,95.01
2017-07-08T06:14:08.547Z,93.56
2017-07-08T06:15:08.571Z,94.24
2017-07-08T06:16:08.925Z,94.53
2017-07-08T06:17:08.950Z,94.62
2017-07-08T06:18:08.709Z,93.9
2017-07-08T06:19:09.006Z,92.83
2017-07-08T06:20:08.716Z,92.55
2017-07-08T06:21:08.741Z,91.49
2017-07-08T06:22:08.775Z,92.65
2017-07-08T06:23:09.117Z,93.66
2017-07-08T06:24:09.145Z,94.92
2017-07-08T06:25:09.171Z,94.92
2017-07-08T06:26:09.199Z,94.34
2017-07-08T06:27:09.231Z,95.11
2017-07-08T06:28:09.245Z,94.72
2017-07-08T06:29:09.281Z,94.53
2017-07-08T06:30:09.304Z,95.35
2017-07-08T06:31:09.021Z,94.96
2017-07-08T06:32:23.959Z,94.92
2017-07-08T06:33:09.390Z,95.64
2017-07-08T06:35:09.441Z,96.22
2017-07-08T06:36:09.472Z,96.36
2017-07-08T06:37:09.487Z,96.22
2017-07-08T06:38:09.528Z,96.56
2017-07-08T06:39:09.545Z,95.59
2017-07-08T06:40:09.576Z,94.87
2017-07-08T06:41:09.281Z,94.87
2017-07-08T06:43:09.659Z,94.62
2017-07-08T06:44:09.680Z,94.43
2017-07-08T06:45:09.714Z,95.4
2017-07-08T06:46:09.741Z,94.04
2017-07-08T06:47:09.764Z,94.04
2017-07-08T06:48:24.393Z,94
2017-07-08T06:49:09.823Z,94.96
2017-07-08T06:51:09.877Z,95.3
2017-07-08T06:52:09.890Z,95.16
2017-07-08T06:53:09.930Z,93.18
2017-07-08T06:54:09.951Z,93.32
2017-07-08T06:55:09.974Z,94
2017-07-08T06:57:10.030Z,95.01
2017-07-08T06:58:10.069Z,95.11
2017-07-08T06:59:10.089Z,96.08
2017-07-08T07:00:10.125Z,94.82
2017-07-08T07:01:09.829Z,95.98
2017-07-08T07:02:10.162Z,96.08
2017-07-08T07:03:10.187Z,94.48
2017-07-08T07:04:24.821Z,94.29
2017-07-08T07:05:09.931Z,94.48
2017-07-08T07:06:10.270Z,94.48
2017-07-08T07:08:10.324Z,93.23
2017-07-08T07:09:10.358Z,92.46
2017-07-08T07:10:10.378Z,92.07
2017-07-08T07:11:10.409Z,91.88
2017-07-08T07:12:10.121Z,92.16
2017-07-08T07:13:10.469Z,91.59
2017-07-08T07:14:10.487Z,91.01
2017-07-08T07:16:10.225Z,91.63
2017-07-08T07:17:10.578Z,91.25
2017-07-08T07:18:10.587Z,90.67
2017-07-08T07:19:10.307Z,90.37
2017-07-08T07:20:25.244Z,90.19
2017-07-08T07:21:10.359Z,90.47
2017-07-08T07:22:10.707Z,90.47
2017-07-08T07:23:10.457Z,90.95
2017-07-08T07:24:10.755Z,88.93
2017-07-08T07:25:10.778Z,89.61
2017-07-08T07:26:10.810Z,90.33
2017-07-08T07:27:10.517Z,91.01
2017-07-08T07:28:10.862Z,90.28
2017-07-08T07:29:10.894Z,89.79
2017-07-08T07:30:10.915Z,89.7
2017-07-08T07:31:10.944Z,88.15
2017-07-08T07:32:10.654Z,88.15
2017-07-08T07:33:10.987Z,88.25
2017-07-08T07:34:11.035Z,88.87
2017-07-08T07:35:25.648Z,87.81
2017-07-08T07:36:11.077Z,87.33
2017-07-08T07:37:10.779Z,87.52
2017-07-08T07:38:11.124Z,87.71
2017-07-08T07:39:11.145Z,87.58
2017-07-08T07:40:10.870Z,87.58
2017-07-08T07:41:11.199Z,87.09
2017-07-08T07:42:10.922Z,87.09
2017-07-08T07:43:11.267Z,86.61
2017-07-08T07:44:11.296Z,86.56
2017-07-08T07:45:11.310Z,87.52
2017-07-08T07:46:11.031Z,87.13
2017-07-08T07:47:11.376Z,87.13
2017-07-08T07:48:11.079Z,86.85
2017-07-08T07:49:11.415Z,86.36
2017-07-08T07:50:11.456Z,86.36
2017-07-08T07:51:11.488Z,87.08
2017-07-08T07:52:11.507Z,87.04
2017-07-08T07:53:11.530Z,86.31
2017-07-08T07:54:11.561Z,86.11
2017-07-08T07:55:11.590Z,86.69
2017-07-08T07:56:11.297Z,85.88
2017-07-08T07:57:11.642Z,85.44
2017-07-08T07:58:11.348Z,86.46
2017-07-08T07:59:11.700Z,87.57
2017-07-08T08:00:11.771Z,87.18
2017-07-08T08:01:11.742Z,86.11
2017-07-08T08:02:11.770Z,86.11
2017-07-08T08:03:11.802Z,86.31
2017-07-08T08:04:11.832Z,86.89
2017-07-08T08:05:11.850Z,87.37
2017-07-08T08:06:11.886Z,86.51
2017-07-08T08:07:26.514Z,86.51
2017-07-08T08:08:11.937Z,86.35
2017-07-08T08:10:11.994Z,83.98
2017-07-08T08:11:12.022Z,84.08
2017-07-08T08:12:12.037Z,83.3
2017-07-08T08:13:12.076Z,83.3
2017-07-08T08:14:12.105Z,83.59
2017-07-08T08:16:12.162Z,82.43
2017-07-08T08:18:11.889Z,82.78
2017-07-08T08:19:12.237Z,82.2
2017-07-08T08:20:11.952Z,82.97
2017-07-08T08:21:12.294Z,82.1
2017-07-08T08:22:11.999Z,82.29
2017-07-08T08:23:26.947Z,82.39
2017-07-08T08:24:12.370Z,82.06
2017-07-08T08:25:12.396Z,82.15
2017-07-08T08:28:12.486Z,83.31
2017-07-08T08:29:12.515Z,81.48
2017-07-08T08:30:12.223Z,82.64
2017-07-08T08:31:12.567Z,82.45
2017-07-08T08:32:12.270Z,82.06
2017-07-08T08:33:12.631Z,82.06
2017-07-08T08:34:12.643Z,82.06
2017-07-08T08:35:12.673Z,80.9
2017-07-08T08:36:12.704Z,81.04
2017-07-08T08:37:12.409Z,81.71
2017-07-08T08:38:12.759Z,81.09
2017-07-08T08:39:27.386Z,80.61
2017-07-08T08:40:12.807Z,80.8
2017-07-08T08:41:12.897Z,80.99
2017-07-08T08:42:12.864Z,80.99
2017-07-08T08:43:12.581Z,80.16
2017-07-08T08:44:12.918Z,79.58
2017-07-08T08:45:12.954Z,80.55
2017-07-08T08:46:12.656Z,79.58
2017-07-08T08:47:12.996Z,80.26
2017-07-08T08:48:13.039Z,80.88
2017-07-08T08:49:12.734Z,78.75
2017-07-08T08:50:13.088Z,77.24
2017-07-08T08:52:12.828Z,78.5
2017-07-08T08:53:13.178Z,78.69
2017-07-08T08:54:13.193Z,79.04
2017-07-08T08:55:27.823Z,78.89
2017-07-08T08:56:13.252Z,78.69
2017-07-08T08:57:12.964Z,78.79
2017-07-08T08:58:13.303Z,78.11
2017-07-08T08:59:13.336Z,77.82
2017-07-08T09:00:13.367Z,77.05
2017-07-08T09:01:13.383Z,77.4
2017-07-08T09:02:13.458Z,77.05
2017-07-08T09:04:13.148Z,76.43
2017-07-08T09:05:13.496Z,77.17
2017-07-08T09:06:13.526Z,78.13
2017-07-08T09:08:13.587Z,76.72
2017-07-08T09:09:13.609Z,75.4
2017-07-08T09:10:28.241Z,75.6
2017-07-08T09:11:13.666Z,75.83
2017-07-08T09:12:13.697Z,76.12
2017-07-08T09:14:13.737Z,74.92
2017-07-08T09:15:13.459Z,74.53
2017-07-08T09:16:13.478Z,74.76
2017-07-08T09:17:13.849Z,75.44
2017-07-08T09:18:13.866Z,74.86
2017-07-08T09:19:13.881Z,74.92
2017-07-08T09:20:13.920Z,74.57
2017-07-08T09:21:13.947Z,74.63
2017-07-08T09:23:13.682Z,76.82
2017-07-08T09:24:13.708Z,77.11
2017-07-08T09:25:13.736Z,77.84
2017-07-08T09:26:14.085Z,77.84
2017-07-08T09:27:14.111Z,78.67
2017-07-08T09:28:14.142Z,79.16
2017-07-08T09:29:14.164Z,78.33
2017-07-08T09:30:14.198Z,78.91
2017-07-08T09:31:14.222Z,79
2017-07-08T09:32:14.248Z,78.61
2017-07-08T09:33:14.285Z,80.08
2017-07-08T09:35:14.324Z,80.57
2017-07-08T09:36:14.044Z,80.57
2017-07-08T09:37:14.388Z,82.02
2017-07-08T09:38:14.418Z,80.86
2017-07-08T09:39:14.441Z,80.47
2017-07-08T09:40:14.473Z,79.06
2017-07-08T09:41:14.502Z,80.28
2017-07-08T09:42:29.123Z,80.95
2017-07-08T09:43:14.552Z,81.19
2017-07-08T09:44:14.583Z,82.6
2017-07-08T09:46:14.634Z,83.18
2017-07-08T09:47:14.656Z,82.83
2017-07-08T09:48:14.372Z,82.45
2017-07-08T09:49:14.706Z,82.45
2017-07-08T09:50:14.743Z,83.18
2017-07-08T09:51:14.758Z,82.31
2017-07-08T09:52:14.486Z,80.71
2017-07-08T09:53:14.814Z,79.49
2017-07-08T09:54:14.854Z,79.58
2017-07-08T09:55:14.880Z,78.91
2017-07-08T09:56:14.897Z,79.25
2017-07-08T09:57:14.931Z,78.23
2017-07-08T09:58:29.560Z,77.55
2017-07-08T09:59:14.982Z,76.78
2017-07-08T10:00:15.021Z,77.26
2017-07-08T10:02:15.069Z,77.51
2017-07-08T10:03:15.102Z,77.13
2017-07-08T10:04:15.127Z,77.42
2017-07-08T10:05:15.147Z,77.13
2017-07-08T10:06:15.182Z,77.42
2017-07-08T10:08:15.234Z,77.03
2017-07-08T10:09:15.271Z,77.03
2017-07-08T10:10:14.975Z,78
2017-07-08T10:11:15.321Z,77.61
2017-07-08T10:12:15.342Z,78.67
2017-07-08T10:13:15.367Z,78.48
2017-07-08T10:14:30.001Z,78.87
2017-07-08T10:15:15.417Z,78.96
2017-07-08T10:17:15.484Z,79.54
2017-07-08T10:18:15.508Z,78.77
2017-07-08T10:19:15.541Z,79.06
2017-07-08T10:20:15.553Z,79.25
2017-07-08T10:21:15.592Z,79.64
2017-07-08T10:22:15.302Z,79.45
2017-07-08T10:23:15.330Z,79.45
2017-07-08T10:24:15.354Z,79.45
2017-07-08T10:25:15.705Z,79.45
2017-07-08T10:26:15.728Z,79.64
2017-07-08T10:27:15.745Z,80.41
2017-07-08T10:28:15.786Z,79.54
2017-07-08T10:29:15.797Z,79.45
2017-07-08T10:30:30.432Z,80.86
2017-07-08T10:31:15.865Z,80.47
2017-07-08T10:32:15.888Z,80.18
2017-07-08T10:33:15.923Z,80.28
2017-07-08T10:34:15.619Z,80.28
2017-07-08T10:35:15.972Z,79.74
2017-07-08T10:36:15.999Z,80.03
2017-07-08T10:37:15.706Z,80.08
2017-07-08T10:38:16.055Z,79.16
2017-07-08T10:39:16.082Z,79.6
2017-07-08T10:40:15.797Z,79.35
2017-07-08T10:41:16.123Z,79.54
2017-07-08T10:42:16.170Z,79.99
2017-07-08T10:43:16.188Z,79.45
2017-07-08T10:44:16.222Z,80.22
2017-07-08T10:45:30.846Z,79.2
2017-07-08T10:46:16.281Z,79.78
2017-07-08T10:47:16.298Z,79.93
2017-07-08T10:48:16.006Z,80.9
2017-07-08T10:50:16.057Z,79.45
2017-07-08T10:52:16.437Z,78.85
2017-07-08T10:53:16.467Z,78.75
2017-07-08T10:54:16.491Z,77.63
2017-07-08T10:55:16.524Z,76.46
2017-07-08T10:56:16.538Z,75.63
2017-07-08T10:57:16.585Z,75.02
2017-07-08T10:58:16.594Z,75.4
2017-07-08T10:59:16.632Z,75.21
2017-07-08T11:00:16.650Z,75.7
2017-07-08T11:02:16.713Z,75.46
2017-07-08T11:04:16.452Z,74.92
2017-07-08T11:05:16.797Z,75.89
2017-07-08T11:06:16.820Z,75.5
2017-07-08T11:07:16.854Z,73.95
2017-07-08T11:08:16.868Z,74.57
2017-07-08T11:09:16.903Z,73.99
2017-07-08T11:11:16.961Z,73.99
2017-07-08T11:12:16.670Z,73.99
2017-07-08T11:13:17.019Z,73.79
2017-07-08T11:14:17.046Z,73.79
2017-07-08T11:15:17.075Z,73.83
2017-07-08T11:16:16.783Z,72.18
2017-07-08T11:17:31.730Z,72.77
2017-07-08T11:18:16.839Z,73.79
2017-07-08T11:20:17.217Z,72.73
2017-07-08T11:21:17.239Z,72.63
2017-07-08T11:22:16.955Z,73.37
2017-07-08T11:23:16.989Z,74.08
2017-07-08T11:24:17.316Z,73.5
2017-07-08T11:25:17.361Z,71.76
2017-07-08T11:26:17.385Z,72.57
2017-07-08T11:27:17.420Z,73.6
2017-07-08T11:28:17.446Z,72.05
2017-07-08T11:29:17.462Z,72.53
2017-07-08T11:30:17.506Z,72.83
2017-07-08T11:31:17.582Z,71.37
2017-07-08T11:32:17.556Z,71.18
2017-07-08T11:33:32.183Z,70.98
2017-07-08T11:34:17.601Z,70.63
2017-07-08T11:35:17.375Z,71.41
2017-07-08T11:36:17.345Z,70.15
2017-07-08T11:37:17.698Z,70.15
2017-07-08T11:38:17.721Z,70.25
2017-07-08T11:39:17.760Z,70.18
2017-07-08T11:40:17.465Z,69.31
2017-07-08T11:41:17.494Z,70.47
2017-07-08T11:42:17.827Z,69.6
2017-07-08T11:44:17.578Z,71.12
2017-07-08T11:45:17.611Z,71.37
2017-07-08T11:46:17.634Z,70.44
2017-07-08T11:47:17.970Z,70.15
2017-07-08T11:48:18.015Z,70.44
2017-07-08T11:49:32.634Z,69.6
2017-07-08T11:50:18.061Z,69.41
2017-07-08T11:51:17.787Z,69.67
2017-07-08T11:52:18.127Z,70.83
2017-07-08T11:53:17.829Z,71.76
2017-07-08T11:54:18.184Z,72.86
2017-07-08T11:55:18.207Z,71.8
2017-07-08T11:56:17.917Z,70.37
2017-07-08T11:57:18.264Z,70.25
2017-07-08T11:58:18.300Z,70.83
2017-07-08T11:59:18.360Z,69.95
2017-07-08T12:00:18.032Z,70.18
2017-07-08T12:01:18.380Z,70.63
2017-07-08T12:02:18.406Z,70.63
2017-07-08T12:03:18.437Z,69.57
2017-07-08T12:04:18.462Z,69.31
2017-07-08T12:05:33.091Z,68.92
2017-07-08T12:06:18.195Z,70.28
2017-07-08T12:07:18.551Z,69.41
2017-07-08T12:08:18.251Z,69.54
2017-07-08T12:09:18.604Z,68.57
2017-07-08T12:10:18.312Z,68.08
2017-07-08T12:11:18.662Z,68.37
2017-07-08T12:12:18.683Z,67.92
2017-07-08T12:13:18.718Z,67.21
2017-07-08T12:15:18.772Z,66.56
2017-07-08T12:16:18.486Z,67.4
2017-07-08T12:18:18.858Z,68.66
2017-07-08T12:19:18.894Z,68.86
2017-07-08T12:20:33.520Z,68.66
2017-07-08T12:21:18.939Z,69.31
2017-07-08T12:22:18.974Z,69.5
2017-07-08T12:23:18.685Z,69.67
2017-07-08T12:24:19.037Z,70.92
2017-07-08T12:25:19.059Z,70.83
2017-07-08T12:26:18.780Z,71.89
2017-07-08T12:28:19.150Z,71.6
2017-07-08T12:29:19.188Z,72.47
2017-07-08T12:30:19.205Z,71.95
2017-07-08T12:31:19.246Z,72.63
2017-07-08T12:32:19.263Z,71.37
2017-07-08T12:33:19.300Z,71.66
2017-07-08T12:34:19.324Z,72.02
2017-07-08T12:35:19.341Z,70.98
2017-07-08T12:36:19.375Z,73.75
2017-07-08T12:37:19.398Z,71.37
2017-07-08T12:38:19.434Z,70.7
2017-07-08T12:39:19.463Z,69.95
2017-07-08T12:40:19.497Z,69.47
2017-07-08T12:41:19.506Z,69.53
2017-07-08T12:42:19.544Z,68.95
2017-07-08T12:43:19.579Z,70.79
2017-07-08T12:44:19.602Z,70.21
2017-07-08T12:45:19.642Z,70.89
2017-07-08T12:46:19.341Z,69.15
2017-07-08T12:47:19.687Z,70.27
2017-07-08T12:48:19.716Z,68.66
2017-07-08T12:49:19.431Z,69.15
2017-07-08T12:50:19.782Z,68.95
2017-07-08T12:51:19.793Z,67.53
2017-07-08T12:52:34.429Z,68.4
2017-07-08T12:53:19.850Z,68.3
2017-07-08T12:54:19.893Z,69.27
2017-07-08T12:55:19.903Z,68.3
2017-07-08T12:57:19.972Z,66.69
2017-07-08T12:58:19.986Z,66.3
2017-07-08T12:59:20.033Z,67.14
2017-07-08T13:00:20.047Z,68.3
2017-07-08T13:01:20.091Z,68.95
2017-07-08T13:02:20.109Z,68.6
2017-07-08T13:03:20.137Z,69.24
2017-07-08T13:04:19.856Z,68.12
2017-07-08T13:05:20.194Z,68.99
2017-07-08T13:06:20.221Z,68.3
2017-07-08T13:07:20.250Z,67.53
2017-07-08T13:08:34.878Z,67.14
2017-07-08T13:09:20.307Z,66.37
2017-07-08T13:10:20.025Z,69.43
2017-07-08T13:11:20.367Z,67.11
2017-07-08T13:12:20.068Z,68.18
2017-07-08T13:13:20.418Z,70.21
2017-07-08T13:14:20.449Z,67.72
2017-07-08T13:15:20.466Z,67.4
2017-07-08T13:17:20.522Z,67.72
2017-07-08T13:18:20.567Z,67.05
2017-07-08T13:19:20.578Z,66.95
2017-07-08T13:20:20.306Z,67.14
2017-07-08T13:21:20.641Z,67.88
2017-07-08T13:22:20.676Z,69.69
2017-07-08T13:23:20.696Z,69.05
2017-07-08T13:24:35.324Z,69.24
2017-07-08T13:25:20.442Z,67.44
2017-07-08T13:26:20.786Z,67.72
2017-07-08T13:27:20.495Z,65.69
2017-07-08T13:28:20.842Z,66.53
2017-07-08T13:29:20.875Z,68.37
2017-07-08T13:30:20.895Z,68.76
2017-07-08T13:31:20.923Z,68.27
2017-07-08T13:32:20.947Z,68.5
2017-07-08T13:33:20.987Z,67.05
2017-07-08T13:34:21.010Z,66.75
2017-07-08T13:35:21.025Z,68.12
2017-07-08T13:36:21.068Z,67.14
2017-07-08T13:37:21.094Z,66.47
2017-07-08T13:38:21.119Z,68.02
2017-07-08T13:39:21.146Z,67.82
2017-07-08T13:40:35.771Z,67.18
2017-07-08T13:41:21.201Z,67.08
2017-07-08T13:42:21.229Z,65.63
2017-07-08T13:43:21.268Z,66.3
2017-07-08T13:44:21.286Z,65.17
2017-07-08T13:45:21.305Z,65.05
2017-07-08T13:46:21.030Z,64.17
2017-07-08T13:47:21.359Z,65.3
2017-07-08T13:48:21.402Z,66.05
2017-07-08T13:51:21.490Z,66.34
2017-07-08T13:53:21.558Z,67.24
2017-07-08T13:54:21.566Z,66.08
2017-07-08T13:55:36.196Z,66.11
2017-07-08T13:56:21.624Z,64.47
2017-07-08T13:57:21.658Z,64.17
2017-07-08T13:58:21.364Z,63.78
2017-07-08T13:59:21.709Z,63.65
2017-07-08T14:00:21.734Z,64.04